• Join FlightAware (Why Join?)
  • Login
  • US Flag 
11:19AM EDT


 

Airport Tracker/Info


-or-


 

Live Flight TrackerFlight Track Log ✈ GJS3707 ✈ 24-May-2013 ✈ KORD - KBOI

Flight Track Log - Related Links

Times and Time Zones

All times are in EDT time to prevent confusion due to time zone crossing. See the GJS3707 flight status page for this flight to view local times or setup timezone preferences in your user account.

Time Position Orientation Groundspeed Altitude Reporting Facility
EDT Latitude Longitude Course Direction KTS MPH feet Rate Location/Type
11:28AM 42.0167 -87.9667 261° West 178 205 2,200  Level Chicago TRACON
11:29AM 42.0500 -88.0167 312° West 225 259 4,300 2,220 Climbing Chicago TRACON
11:31AM 42.1453 -88.1667 311° West 286 329 9,400 2,220 Climbing Chicago Center
11:32AM 41.8998 -88.6106 261° West  Level FlightAware Approximate
11:32AM 42.1172 -88.2658 249° West 287 330 11,500  Level Chicago Center
11:33AM 41.8824 -88.7585 261° West  Level FlightAware Approximate
11:33AM 42.0575 -88.3914 237° Southwest 334 384 13,700  Level Chicago Center
11:34AM 41.9981 -88.4972 233° Southwest 353 406 15,000 1,080 Climbing Chicago Center
11:35AM 41.9364 -88.6006 231° Southwest 358 412 16,000 1,020 Climbing Chicago Center
11:36AM 41.8908 -88.7156 242° Southwest 356 410 17,200 1,200 Climbing Chicago Center
11:37AM 41.8631 -88.8400 253° West 351 404 18,500 1,680 Climbing Chicago Center
11:38AM 41.8317 -88.9942 255° West 360 414 20,700 1,740 Climbing Chicago Center
11:39AM 41.8067 -89.1242 256° West 362 417 22,200 1,380 Climbing Chicago Center
11:40AM 41.7811 -89.2581 256° West 372 428 23,600 1,080 Climbing Chicago Center
11:41AM 41.7544 -89.3950 255° West 384 442 24,500 720 Climbing Chicago Center
11:42AM 41.7414 -89.5397 263° West 400 460 25,200 720 Climbing Chicago Center
11:43AM 41.7422 -89.7169 270° West 406 467 26,100 720 Climbing Chicago Center
11:44AM 41.7406 -89.8736 269° West 416 479 26,800 660 Climbing Chicago Center
11:45AM 41.7400 -90.0303 270° West 426 490 27,500 720 Climbing Chicago Center
11:46AM 41.7381 -90.1883 269° West 426 490 28,300 720 Climbing Chicago Center
11:47AM 41.7367 -90.3469 269° West 428 493 29,100 960 Climbing Chicago Center
11:48AM 41.7344 -90.5361 269° West 425 489 30,300 960 Climbing Chicago Center
11:49AM 41.7325 -90.6825 269° West 421 484 31,100 720 Climbing Chicago Center
11:50AM 41.7303 -90.8361 269° West 417 480 31,900 720 Climbing Chicago Center
11:51AM 41.7281 -90.9886 269° West 412 474 32,700 720 Climbing Chicago Center
11:52AM 41.7250 -91.1711 269° West 411 473 33,500 600 Climbing Chicago Center
11:53AM 41.7219 -91.3228 269° West 411 473 34,000 240 Climbing Chicago Center
11:55AM 41.7194 -91.4789 269° West 417 480 34,000  Level Chicago Center
11:56AM 41.7161 -91.6369 268° West 426 490 34,000  Level Chicago Center
11:57AM 41.7122 -91.7942 268° West 425 489 34,000  Level Chicago Center
11:58AM 41.7086 -91.9542 268° West 429 494 34,000  Level Chicago Center
11:59AM 41.7028 -92.1453 268° West 430 495 34,000  Level Chicago Center
12:00PM 41.6989 -92.3097 268° West 437 503 34,000  Level Chicago Center
12:01PM 41.6944 -92.4717 268° West 437 503 34,000  Level Chicago Center
12:02PM 41.6897 -92.6333 268° West 437 503 34,000  Level Chicago Center
12:03PM 41.6850 -92.8033 268° West 436 502 34,000  Level Chicago Center
12:05PM 41.6744 -93.1269 268° West 437 503 34,000  Level Minneapolis Center
12:06PM 41.6686 -93.2850 267° West 434 499 34,000  Level Minneapolis Center
12:07PM 41.6628 -93.4461 267° West 436 502 34,000  Level Minneapolis Center
12:08PM 41.6575 -93.6347 268° West 430 495 34,000  Level Minneapolis Center
12:09PM 41.6514 -93.7958 267° West 435 501 34,000  Level Minneapolis Center
12:10PM 41.6447 -93.9575 267° West 438 504 34,000  Level Minneapolis Center
12:11PM 41.6375 -94.1186 267° West 438 504 34,000  Level Minneapolis Center
12:12PM 41.6283 -94.3011 266° West 441 507 34,000  Level Minneapolis Center
12:13PM 41.6206 -94.4636 266° West 437 503 34,000  Level Minneapolis Center
12:14PM 41.6144 -94.6267 267° West 437 503 34,000  Level Minneapolis Center
12:15PM 41.6067 -94.7886 266° West 436 502 34,000  Level Minneapolis Center
12:16PM 41.5975 -94.9519 266° West 438 504 34,000  Level Minneapolis Center
12:17PM 41.5878 -95.1447 266° West 435 501 34,000  Level Minneapolis Center
12:18PM 41.5792 -95.3089 266° West 441 507 34,000  Level Minneapolis Center
12:19PM 41.5708 -95.4708 266° West 440 506 34,000  Level Minneapolis Center
12:20PM 41.5567 -95.6900 265° West 440 506 34,000  Level Minneapolis Center
12:21PM 41.5489 -95.8547 266° West 445 512 34,000  Level Minneapolis Center
12:23PM 41.5389 -96.0186 265° West 444 511 34,000  Level Minneapolis Center
12:24PM 41.5289 -96.1822 265° West 443 510 34,000  Level Minneapolis Center
12:25PM 41.5192 -96.3461 266° West 442 509 34,000  Level Minneapolis Center
12:26PM 41.5086 -96.5069 265° West 443 510 34,000  Level Minneapolis Center
12:27PM 41.4961 -96.7044 265° West 448 516 34,000  Level Minneapolis Center
12:28PM 41.4856 -96.8678 265° West 446 513 34,000  Level Minneapolis Center
12:29PM 41.4736 -97.0319 265° West 447 514 34,000  Level Minneapolis Center
12:30PM 41.4619 -97.1956 265° West 447 514 34,000  Level Minneapolis Center
12:31PM 41.4517 -97.3594 265° West 445 512 34,000  Level Minneapolis Center
12:32PM 41.4392 -97.5239 264° West 447 514 34,000  Level Minneapolis Center
12:33PM 41.4244 -97.7219 264° West 448 516 34,000  Level Minneapolis Center
12:34PM 41.4128 -97.8881 265° West 450 518 34,000  Level Minneapolis Center
12:35PM 41.3997 -98.0528 264° West 450 518 34,000  Level Minneapolis Center
12:36PM 41.3869 -98.2239 264° West 449 517 34,000  Level Minneapolis Center
12:37PM 41.3803 -98.3903 267° West 452 520 34,000  Level Minneapolis Center
12:38PM 41.4014 -98.5519 280° West 455 524 34,000  Level Minneapolis Center
12:39PM 41.4242 -98.7511 279° West 455 524 34,000  Level Minneapolis Center
12:40PM 41.4419 -98.8825 280° West 453 521 34,000  Level Denver Center
12:41PM 41.4644 -99.0800 279° West 455 524 34,000  Level Denver Center
12:42PM 41.4842 -99.2439 279° West 451 519 34,000  Level Denver Center
12:42PM 41.4886 -99.2767 280° West 452 520 34,000  Level Minneapolis Center
12:43PM 41.5025 -99.4086 278° West 452 520 34,000  Level Denver Center
12:44PM 41.5217 -99.5747 279° West 453 521 34,000  Level Denver Center
12:45PM 41.5403 -99.7419 279° West 454 522 34,000  Level Denver Center
12:46PM 41.5603 -99.9308 278° West 456 525 34,000  Level Denver Center
12:47PM 41.5778 -100.0903 278° West 456 525 34,000  Level Denver Center
12:48PM 41.5978 -100.2775 278° West 457 526 34,000  Level Denver Center
12:49PM 41.6150 -100.4381 278° West 459 528 34,000  Level Denver Center
12:50PM 41.6350 -100.6253 278° West 459 528 34,000  Level Denver Center
12:51PM 41.6522 -100.7867 278° West 461 531 34,000  Level Denver Center
12:52PM 41.6711 -100.9747 278° West 459 528 34,000  Level Denver Center
12:53PM 41.6869 -101.1364 278° West 460 529 34,000  Level Denver Center
12:55PM 41.7050 -101.3236 277° West 458 527 34,000  Level Denver Center
12:56PM 41.7219 -101.4839 278° West 457 526 34,000  Level Denver Center
12:57PM 41.7378 -101.6717 277° West 456 525 34,000  Level Denver Center
12:58PM 41.7594 -101.8847 278° West 455 524 34,000  Level Denver Center
12:59PM 41.7736 -102.0464 277° West 456 525 34,000  Level Denver Center
01:00PM 41.7903 -102.2347 277° West 458 527 34,000  Level Denver Center
01:01PM 41.8058 -102.4028 277° West 456 525 34,000  Level Denver Center
01:02PM 41.8189 -102.5656 276° West 457 526 34,000  Level Denver Center
01:03PM 41.8350 -102.7536 277° West 455 524 34,000  Level Denver Center
01:04PM 41.8489 -102.9153 277° West 456 525 34,000  Level Denver Center
01:05PM 41.8644 -103.1028 276° West 454 522 34,000  Level Denver Center
01:06PM 41.8767 -103.2636 276° West 453 521 34,000  Level Denver Center
01:07PM 41.8864 -103.3986 276° West 455 524 34,000  Level Denver Center
01:08PM 41.9364 -103.6042 288° West 460 529 34,000  Level Denver Center
01:09PM 41.9897 -103.7500 296° West 457 526 34,000  Level Denver Center
01:10PM 42.0503 -103.9236 295° West 458 527 34,000  Level Denver Center
01:11PM 42.1017 -104.0722 295° West 457 526 34,000  Level Denver Center
01:12PM 42.1617 -104.2467 295° West 458 527 34,000  Level Denver Center
01:13PM 42.2133 -104.3964 295° West 458 527 34,000  Level Denver Center
01:14PM 42.2731 -104.5722 295° West 458 527 34,000  Level Denver Center
01:15PM 42.3253 -104.7247 295° West 461 531 34,000  Level Denver Center
01:16PM 42.3778 -104.8767 295° West 462 532 34,000  Level Denver Center
01:17PM 42.4369 -105.0536 294° West 459 528 34,000  Level Denver Center
01:18PM 42.4878 -105.2025 295° West 456 525 34,000  Level Denver Center
01:20PM 42.5464 -105.3794 294° West 458 527 34,000  Level Denver Center
01:21PM 42.6128 -105.5833 294° West 463 533 34,000  Level Denver Center
01:22PM 42.6628 -105.7364 294° West 463 533 34,000  Level Denver Center
01:23PM 42.7133 -105.8897 294° West 465 535 34,000  Level Denver Center
01:24PM 42.7717 -106.0675 294° West 462 532 34,000  Level Denver Center
01:25PM 42.8197 -106.2206 293° West 460 529 34,000  Level Denver Center
01:26PM 42.8783 -106.3994 294° West 464 534 34,000  Level Denver Center
01:27PM 42.9261 -106.5553 293° West 465 535 34,000  Level Denver Center
01:28PM 42.9839 -106.7350 294° West 464 534 34,000  Level Denver Center
01:29PM 43.0317 -106.8897 293° West 463 533 34,000  Level Denver Center
01:30PM 43.0722 -107.0175 294° West 461 531 34,000  Level Denver Center
01:31PM 43.1350 -107.2186 293° West 451 519 34,000  Level Denver Center
01:32PM 43.1889 -107.3914 293° West 449 517 34,000  Level Denver Center
01:33PM 43.2339 -107.5406 293° West 444 511 34,000  Level Denver Center
01:34PM 43.2800 -107.6922 293° West 447 514 34,000  Level Salt Lake Center
01:35PM 43.3328 -107.8681 292° West 445 512 34,000  Level Salt Lake Center
01:36PM 43.3775 -108.0169 292° West 442 509 34,000  Level Salt Lake Center
01:37PM 43.4297 -108.1892 293° West 437 503 34,000  Level Salt Lake Center
01:38PM 43.4703 -108.3397 290° West 438 504 34,000  Level Salt Lake Center
01:39PM 43.4950 -108.4928 283° West 433 498 34,000  Level Salt Lake Center
01:40PM 43.5264 -108.6694 284° West 426 490 34,000  Level Salt Lake Center
01:41PM 43.5536 -108.8225 284° West 427 491 34,000  Level Salt Lake Center
01:42PM 43.5847 -108.9997 284° West 426 490 34,000  Level Salt Lake Center
01:43PM 43.6114 -109.1514 284° West 425 489 34,000  Level Salt Lake Center
01:44PM 43.6414 -109.3278 283° West 423 487 34,000  Level Salt Lake Center
01:46PM 43.6664 -109.4792 283° West 423 487 34,000  Level Salt Lake Center
01:47PM 43.6919 -109.6342 283° West 423 487 34,000  Level Salt Lake Center
01:48PM 43.7214 -109.8075 283° West 417 480 34,000  Level Salt Lake Center
01:49PM 43.7456 -109.9569 283° West 416 479 34,000  Level Salt Lake Center
01:50PM 43.7742 -110.1322 283° West 419 482 34,000  Level Salt Lake Center
01:51PM 43.7989 -110.2822 283° West 419 482 34,000  Level Salt Lake Center
01:52PM 43.8267 -110.4550 283° West 412 474 34,000  Level Salt Lake Center
01:53PM 43.8497 -110.6056 282° West 416 479 34,000  Level Salt Lake Center
01:54PM 43.8772 -110.7803 282° West 417 480 34,000  Level Salt Lake Center
01:55PM 43.9006 -110.9294 282° West 414 476 34,000  Level Salt Lake Center
01:56PM 43.9228 -111.0794 282° West 414 476 34,000  Level Salt Lake Center
01:57PM 43.9497 -111.2542 282° West 412 474 34,000  Level Salt Lake Center
01:58PM 43.9711 -111.4025 281° West 410 472 34,000  Level Salt Lake Center
01:59PM 43.9967 -111.5767 282° West 410 472 34,000  Level Salt Lake Center
02:00PM 44.0181 -111.7247 281° West 409 471 34,000  Level Salt Lake Center
02:01PM 44.0439 -111.8978 282° West 408 470 34,000  Level Salt Lake Center
02:02PM 44.0667 -112.0467 282° West 410 472 34,000  Level Salt Lake Center
02:03PM 44.0850 -112.2164 279° West 400 460 34,000  Level Salt Lake Center
02:04PM 44.0711 -112.3589 262° West 392 451 34,000  Level Salt Lake Center
02:05PM 44.0553 -112.5031 261° West 392 451 34,000  Level Salt Lake Center
02:06PM 44.0369 -112.6689 261° West 390 449 34,000  Level Salt Lake Center
02:07PM 44.0186 -112.8111 260° West 390 449 34,000  Level Salt Lake Center
02:08PM 44.0003 -112.9758 261° West 388 447 34,000  Level Salt Lake Center
02:09PM 43.9814 -113.1175 260° West 390 449 34,000  Level Salt Lake Center
02:10PM 43.9611 -113.2833 260° West 390 449 34,000  Level Salt Lake Center
02:11PM 43.9436 -113.4239 260° West 388 447 34,000  Level Salt Lake Center
02:12PM 43.9242 -113.5911 261° West 395 455 34,000  Level Salt Lake Center
02:13PM 43.9064 -113.7322 260° West 389 448 34,000 -180 Level Salt Lake Center
02:14PM 43.8850 -113.8958 260° West 385 443 33,700 -1,020 Descending Salt Lake Center
02:15PM 43.8661 -114.0322 259° West 393 452 32,000 -1,980 Descending Salt Lake Center
02:17PM 43.8472 -114.1981 261° West 394 453 29,700 -1,500 Descending Salt Lake Center
02:18PM 43.8269 -114.3439 259° West 403 464 29,000 -1,260 Descending Salt Lake Center
02:19PM 43.8053 -114.5153 260° West 400 460 27,100 -1,860 Descending Salt Lake Center
02:20PM 43.7853 -114.6558 259° West 390 449 25,200 -2,040 Descending Salt Lake Center
02:21PM 43.7631 -114.8194 259° West 387 445 23,000 -2,040 Descending Salt Lake Center
02:22PM 43.7447 -114.9606 260° West 389 448 21,100 -2,040 Descending Salt Lake Center
02:23PM 43.7222 -115.1233 259° West 386 444 18,800 -2,040 Descending Salt Lake Center
02:24PM 43.7044 -115.2561 260° West 371 427 16,900 -1,860 Descending Salt Lake Center
02:25PM 43.6864 -115.3806 259° West 353 406 15,000 -2,100 Descending Salt Lake Center
02:26PM 43.6658 -115.5231 259° West 340 391 12,600 -1,500 Descending Salt Lake Center
02:27PM 43.6475 -115.6564 259° West 338 389 12,000 -480 Descending Salt Lake Center
02:28PM 43.6211 -115.7692 252° West 301 346 11,700 -1,260 Descending Salt Lake Center
02:29PM 43.5547 -115.8286 213° Southwest 272 313 9,500 -2,280 Descending Salt Lake Center
02:30PM 43.4961 -115.8931 219° Southwest 261 300 7,100 -1,560 Descending Salt Lake Center
02:31PM 43.4769 -115.9728 252° West 239 275 6,300 -840 Descending Salt Lake Center
02:32PM 43.5050 -116.0492 297° West 215 247 5,400 -960 Descending Salt Lake Center
02:33PM 43.5256 -116.1086 296° West 167 192 4,400 -1,020 Descending Salt Lake Center